Time;durP1;ratioP1;P1;durP2;ratioP2;P2;SDS_P1;SDS_P2;PMS_P1;PMS_P2;Temp;Humidity;BMP_temperature;BMP_pressure;BME280_temperature;BME280_humidity;BME280_pressure;Samples;Min_cycle;Max_cycle;Signal;HPM_P1;HPM_P2
2022/02/23 00:01:13;;;;;;;7.05;2.00;;;5.90;65.50;;;;;;6205312;23;20516;-87
2022/02/23 00:04:01;;;;;;;6.65;2.00;;;5.90;71.70;;;;;;6126424;23;20107;-87
2022/02/23 00:06:49;;;;;;;4.90;2.10;;;5.90;77.70;;;;;;6211391;23;20318;-83
2022/02/23 00:09:41;;;;;;;;;;;5.90;83.40;;;;;;6203647;23;20022;-86
2022/02/23 00:12:31;;;;;;;5.35;2.30;;;5.80;85.10;;;;;;6121418;23;19925;-87
2022/02/23 00:15:18;;;;;;;8.45;2.45;;;5.80;86.20;;;;;;6121238;23;20119;-85
2022/02/23 00:18:15;;;;;;;14.85;2.47;;;5.90;86.10;;;;;;6121307;23;20095;-87
2022/02/23 00:21:05;;;;;;;9.70;2.83;;;5.90;90.80;;;;;;6122979;22;20030;-86
2022/02/23 00:23:53;;;;;;;9.02;2.53;;;5.80;99.60;;;;;;6122554;23;20352;-87
2022/02/23 00:26:42;;;;;;;7.47;2.28;;;5.70;99.90;;;;;;6122877;23;20410;-86
2022/02/23 00:29:29;;;;;;;8.18;1.90;;;5.70;99.90;;;;;;6210461;23;20068;-89
2022/02/23 00:32:18;;;;;;;6.38;2.13;;;5.60;99.90;;;;;;6123482;23;20094;-87
2022/02/23 00:35:06;;;;;;;7.72;2.10;;;5.60;99.90;;;;;;6127383;23;20167;-86
2022/02/23 00:37:54;;;;;;;8.15;2.30;;;5.60;99.90;;;;;;6123150;23;20140;-88
2022/02/23 00:40:42;;;;;;;8.38;2.35;;;5.60;99.90;;;;;;6206038;23;20041;-87
2022/02/23 00:43:29;;;;;;;5.68;2.30;;;5.60;99.90;;;;;;6123330;23;20034;-91
2022/02/23 00:46:20;;;;;;;13.13;2.75;;;5.50;99.90;;;;;;6124254;22;20037;-85
2022/02/23 00:49:10;;;;;;;9.95;2.58;;;5.50;99.90;;;;;;6123168;23;20026;-86
2022/02/23 00:52:02;;;;;;;8.63;2.53;;;5.50;99.90;;;;;;6120998;23;20125;-87
2022/02/23 00:54:53;;;;;;;8.23;2.53;;;5.50;99.90;;;;;;6122709;23;20102;-85
2022/02/23 00:57:43;;;;;;;6.40;2.40;;;5.60;99.90;;;;;;6208150;23;20057;-87
2022/02/23 01:00:30;;;;;;;5.28;2.17;;;5.60;99.90;;;;;;6208067;23;20030;-87
2022/02/23 01:03:17;;;;;;;9.27;2.67;;;5.60;99.90;;;;;;6121753;23;20100;-87
2022/02/23 01:06:04;;;;;;;9.48;2.17;;;5.60;99.90;;;;;;6124904;22;20088;-91
2022/02/23 01:08:54;;;;;;;9.20;2.53;;;5.60;99.90;;;;;;6207597;23;20026;-88
2022/02/23 01:11:41;;;;;;;5.53;2.47;;;5.70;99.90;;;;;;6122974;23;20053;-86
2022/02/23 01:14:31;;;;;;;13.50;2.78;;;5.70;99.90;;;;;;6122722;23;20048;-83
2022/02/23 01:17:18;;;;;;;10.40;2.60;;;5.70;99.90;;;;;;6121058;23;20037;-87
2022/02/23 01:20:06;;;;;;;9.63;2.35;;;5.60;99.90;;;;;;6123154;22;20096;-86
2022/02/23 01:22:59;;;;;;;9.45;2.85;;;5.60;99.90;;;;;;6201838;23;20064;-85
2022/02/23 01:25:46;;;;;;;10.98;3.33;;;5.60;99.90;;;;;;6121867;23;20385;-85
2022/02/23 01:28:34;;;;;;;10.10;3.05;;;5.60;99.90;;;;;;6204739;23;20029;-86
2022/02/23 01:31:21;;;;;;;8.30;2.95;;;5.60;99.90;;;;;;6121066;23;20033;-86
2022/02/23 01:34:09;;;;;;;4.60;2.65;;;5.60;99.90;;;;;;6120931;23;20030;-86
2022/02/23 01:36:56;;;;;;;13.60;4.47;;;5.60;99.90;;;;;;6120050;23;20034;-86
2022/02/23 01:39:43;;;;;;;15.80;3.20;;;5.70;99.90;;;;;;6119907;23;20038;-87
2022/02/23 01:42:34;;;;;;;6.25;2.95;;;5.60;99.90;;;;;;6120176;23;20045;-87
2022/02/23 01:45:21;;;;;;;8.55;3.58;;;5.60;99.90;;;;;;6121992;23;20026;-87
2022/02/23 01:48:09;;;;;;;10.55;3.42;;;5.70;99.90;;;;;;6119726;23;20083;-86
2022/02/23 01:50:56;;;;;;;11.68;3.53;;;5.70;99.90;;;;;;6128377;23;20068;-84
2022/02/23 01:53:43;;;;;;;10.90;3.15;;;5.70;99.90;;;;;;6122959;23;20033;-87
2022/02/23 01:56:32;;;;;;;9.35;3.25;;;5.70;99.90;;;;;;6122718;22;20460;-85
2022/02/23 01:59:22;;;;;;;9.10;3.22;;;5.70;99.90;;;;;;6121313;23;20022;-86
2022/02/23 02:02:09;;;;;;;11.82;2.95;;;5.70;99.90;;;;;;6120053;23;20064;-84
2022/02/23 02:04:57;;;;;;;8.90;2.65;;;5.70;99.90;;;;;;6119260;23;20064;-84
2022/02/23 02:07:44;;;;;;;7.90;2.40;;;5.70;99.90;;;;;;6121640;23;20491;-84
2022/02/23 02:10:32;;;;;;;6.80;2.50;;;5.70;99.90;;;;;;6205289;23;20029;-86
2022/02/23 02:13:20;;;;;;;6.50;2.55;;;5.80;99.90;;;;;;6122015;23;20087;-87
2022/02/23 02:16:08;;;;;;;7.38;2.63;;;5.80;99.90;;;;;;6121262;23;20022;-87
2022/02/23 02:18:55;;;;;;;11.70;2.55;;;5.80;99.90;;;;;;6119736;23;20369;-85
2022/02/23 02:21:58;;;;;;;4.93;2.25;;;5.80;99.90;;;;;;6128696;23;20026;-88
2022/02/23 02:24:56;;;;;;;8.05;2.30;;;5.80;99.90;;;;;;6218444;22;20022;-86
2022/02/23 02:27:43;;;;;;;11.23;1.95;;;5.80;99.90;;;;;;6128093;23;20083;-88
2022/02/23 02:30:30;;;;;;;2.30;1.45;;;5.60;99.90;;;;;;6135118;23;20051;-87
2022/02/23 02:33:18;;;;;;;3.85;1.45;;;5.30;99.90;;;;;;6214283;23;20046;-88
2022/02/23 02:36:05;;;;;;;9.90;2.33;;;4.90;99.90;;;;;;6122879;23;20053;-88
2022/02/23 02:38:52;;;;;;;3.95;1.77;;;4.60;99.90;;;;;;6121930;23;20076;-87
2022/02/23 02:41:39;;;;;;;8.07;2.30;;;4.40;99.90;;;;;;6123348;23;20061;-86
2022/02/23 02:44:29;;;;;;;6.90;1.83;;;4.10;99.90;;;;;;6127252;23;20101;-87
2022/02/23 02:47:16;;;;;;;11.48;2.55;;;4.00;99.90;;;;;;6124454;23;20080;-85
2022/02/23 02:50:04;;;;;;;10.38;2.25;;;3.80;99.90;;;;;;6210064;23;20107;-85
2022/02/23 02:52:55;;;;;;;14.52;3.25;;;3.70;99.90;;;;;;6206026;23;20045;-85
2022/02/23 02:55:43;;;;;;;15.32;2.85;;;3.70;99.90;;;;;;6123170;23;20049;-83
2022/02/23 02:58:33;;;;;;;20.15;3.30;;;3.60;99.90;;;;;;6209279;22;20045;-84
2022/02/23 03:01:24;;;;;;;10.57;2.28;;;3.50;99.90;;;;;;6120482;23;20283;-87
2022/02/23 03:04:11;;;;;;;16.02;2.55;;;3.50;99.90;;;;;;6121877;22;20116;-86
2022/02/23 03:06:58;;;;;;;12.05;2.05;;;3.50;99.90;;;;;;6118985;23;20030;-86
2022/02/23 03:09:49;;;;;;;13.80;3.00;;;3.50;99.90;;;;;;6204437;23;20495;-84
2022/02/23 03:12:37;;;;;;;22.27;2.65;;;3.50;99.90;;;;;;6121665;23;20033;-84
2022/02/23 03:15:28;;;;;;;17.15;2.58;;;3.50;99.90;;;;;;6204753;23;20654;-84
2022/02/23 03:18:18;;;;;;;12.38;2.33;;;3.50;99.90;;;;;;6173973;23;20030;-85
2022/02/23 03:21:08;;;;;;;16.83;3.15;;;3.40;99.90;;;;;;6091177;23;20437;-84
2022/02/23 03:23:58;;;;;;;13.60;2.50;;;3.40;99.90;;;;;;6090438;23;20398;-86
2022/02/23 03:26:45;;;;;;;27.63;4.20;;;3.30;99.90;;;;;;6188149;23;20092;-83
2022/02/23 03:29:33;;;;;;;19.20;2.97;;;3.40;99.90;;;;;;6089814;23;20022;-86
2022/02/23 03:32:20;;;;;;;17.00;3.78;;;3.40;99.90;;;;;;6088444;23;20041;-85
2022/02/23 03:35:10;;;;;;;19.70;2.70;;;3.50;99.90;;;;;;6174451;23;20453;-86
2022/02/23 03:37:58;;;;;;;17.67;3.45;;;3.50;99.90;;;;;;6097256;22;20038;-85
2022/02/23 03:40:45;;;;;;;13.30;2.72;;;3.40;99.90;;;;;;6176981;23;20034;-86
2022/02/23 03:43:35;;;;;;;16.90;3.83;;;3.40;99.90;;;;;;6090956;23;20045;-84
2022/02/23 03:46:22;;;;;;;14.90;2.67;;;3.30;99.90;;;;;;6090993;23;20026;-85
2022/02/23 03:49:10;;;;;;;15.93;3.25;;;3.20;99.90;;;;;;6175398;23;20029;-84
2022/02/23 03:52:01;;;;;;;13.75;2.90;;;3.10;99.90;;;;;;6089810;23;20112;-85
2022/02/23 03:54:49;;;;;;;15.65;3.58;;;2.90;99.90;;;;;;6192640;23;20026;-85
2022/02/23 03:57:36;;;;;;;11.98;2.78;;;2.80;99.90;;;;;;6091765;23;20041;-83
2022/02/23 04:00:23;;;;;;;14.52;3.25;;;2.80;99.90;;;;;;6096774;23;20060;-85
2022/02/23 04:03:11;;;;;;;15.13;3.20;;;2.70;99.90;;;;;;6098984;23;20050;-85
2022/02/23 04:06:02;;;;;;;19.70;3.00;;;2.60;99.90;;;;;;6098372;23;20030;-83
2022/02/23 04:08:52;;;;;;;11.52;3.22;;;2.60;99.90;;;;;;6096208;23;20026;-83
2022/02/23 04:11:48;;;;;;;17.02;3.40;;;2.50;99.90;;;;;;6183427;22;20018;-85
2022/02/23 04:14:36;;;;;;;16.70;3.83;;;2.40;99.90;;;;;;6113763;22;20021;-81
2022/02/23 04:17:24;;;;;;;30.85;4.47;;;2.50;99.90;;;;;;6219646;22;20019;-83
2022/02/23 04:20:11;;;;;;;16.13;3.83;;;2.50;99.90;;;;;;6113264;22;20094;-85
2022/02/23 04:22:58;;;;;;;20.15;3.97;;;2.60;99.90;;;;;;6103267;23;20022;-84
2022/02/23 04:25:47;;;;;;;18.75;4.05;;;2.60;99.90;;;;;;6103382;23;20098;-86
2022/02/23 04:28:35;;;;;;;19.98;3.83;;;2.80;99.90;;;;;;6101648;23;20030;-85
2022/02/23 04:31:25;;;;;;;18.67;4.05;;;2.80;99.90;;;;;;6213186;23;20010;-85
2022/02/23 04:34:13;;;;;;;22.92;4.53;;;3.00;99.90;;;;;;6110934;23;20027;-86
2022/02/23 04:37:00;;;;;;;19.80;4.90;;;3.00;99.90;;;;;;6104473;23;20022;-83
2022/02/23 04:39:47;;;;;;;18.23;4.47;;;3.10;99.90;;;;;;6102904;23;20034;-84
2022/02/23 04:42:35;;;;;;;17.42;3.75;;;3.10;99.90;;;;;;6103879;23;20030;-85
2022/02/23 04:45:24;;;;;;;25.63;5.13;;;3.10;99.90;;;;;;6102717;23;20084;-85
2022/02/23 04:48:19;;;;;;;23.02;4.45;;;3.10;99.90;;;;;;6182111;23;20102;-84
2022/02/23 04:51:06;;;;;;;25.83;4.60;;;3.20;99.90;;;;;;6195634;23;20034;-85
2022/02/23 04:53:53;;;;;;;22.23;4.75;;;3.20;99.90;;;;;;6175570;23;20387;-84
2022/02/23 04:56:41;;;;;;;21.20;5.18;;;3.20;99.90;;;;;;6097019;23;20129;-83
2022/02/23 04:59:28;;;;;;;12.10;4.65;;;3.20;99.90;;;;;;6094454;23;20034;-83
2022/02/23 05:02:17;;;;;;;21.65;5.13;;;3.20;99.90;;;;;;6092053;23;20385;-83
2022/02/23 05:05:06;;;;;;;19.50;4.68;;;3.20;99.90;;;;;;6172817;23;20065;-83
2022/02/23 05:08:02;;;;;;;18.20;4.43;;;3.20;99.90;;;;;;6093467;23;20022;-84
2022/02/23 05:10:49;;;;;;;16.10;5.07;;;3.20;99.90;;;;;;6092443;23;20057;-84
2022/02/23 05:13:36;;;;;;;24.45;5.93;;;3.20;99.90;;;;;;6092599;23;20022;-84
2022/02/23 05:16:26;;;;;;;24.38;6.70;;;3.20;99.90;;;;;;6091430;23;20381;-84
2022/02/23 05:19:13;;;;;;;22.33;4.95;;;3.10;99.90;;;;;;6174567;23;20069;-84
2022/02/23 05:22:04;;;;;;;17.10;4.22;;;3.00;99.90;;;;;;6093148;23;20096;-83
2022/02/23 05:24:51;;;;;;;18.08;4.53;;;2.90;99.90;;;;;;6090928;23;20084;-83
2022/02/23 05:27:41;;;;;;;20.15;5.57;;;2.80;99.90;;;;;;6090273;23;20054;-85
2022/02/23 05:30:30;;;;;;;12.82;3.75;;;2.60;99.90;;;;;;6093539;23;20076;-83
2022/02/23 05:33:27;;;;;;;13.65;4.03;;;2.50;99.90;;;;;;6093078;23;20030;-86
2022/02/23 05:36:16;;;;;;;21.48;4.65;;;2.40;99.90;;;;;;6092472;23;20030;-85
2022/02/23 05:39:03;;;;;;;19.90;4.97;;;2.40;99.90;;;;;;6177453;23;20136;-85
2022/02/23 05:41:51;;;;;;;22.52;5.22;;;2.40;99.90;;;;;;6177194;22;20418;-84
2022/02/23 05:44:38;;;;;;;28.73;5.88;;;2.40;99.90;;;;;;6092294;23;20038;-84
2022/02/23 05:47:26;;;;;;;23.25;5.95;;;2.30;99.90;;;;;;6091838;23;20042;-85
2022/02/23 05:50:16;;;;;;;22.15;6.15;;;2.20;99.90;;;;;;6093918;23;20022;-85
2022/02/23 05:53:03;;;;;;;17.52;6.63;;;2.10;99.90;;;;;;6091237;23;20026;-84
2022/02/23 05:55:50;;;;;;;15.35;5.43;;;2.00;99.90;;;;;;6094200;23;20038;-85
2022/02/23 05:58:39;;;;;;;26.75;5.90;;;2.10;99.90;;;;;;6092722;23;20419;-86
2022/02/23 06:01:27;;;;;;;22.40;6.07;;;2.00;99.90;;;;;;6092064;23;20026;-85
2022/02/23 06:04:16;;;;;;;22.48;5.85;;;2.10;99.90;;;;;;6201702;23;20056;-86
2022/02/23 06:07:05;;;;;;;21.83;5.32;;;2.10;99.90;;;;;;6094098;23;20026;-85
2022/02/23 06:09:52;;;;;;;33.72;6.95;;;2.10;99.90;;;;;;6092019;23;20110;-85
2022/02/23 06:12:39;;;;;;;34.33;9.38;;;2.10;99.90;;;;;;6093592;23;20023;-87
2022/02/23 06:15:29;;;;;;;39.47;8.70;;;2.10;99.90;;;;;;6090330;23;20078;-86
2022/02/23 06:18:16;;;;;;;27.20;8.38;;;2.00;99.90;;;;;;6196897;22;20030;-87
2022/02/23 06:21:04;;;;;;;27.73;9.23;;;2.00;99.90;;;;;;6092625;23;20026;-88
2022/02/23 06:23:52;;;;;;;33.63;7.03;;;2.00;99.90;;;;;;6091706;23;20080;-86
2022/02/23 06:26:42;;;;;;;22.45;6.70;;;2.00;99.90;;;;;;6176138;23;20112;-86
2022/02/23 06:29:29;;;;;;;25.13;6.65;;;1.90;99.90;;;;;;6091898;23;20027;-87
2022/02/23 06:32:19;;;;;;;27.73;6.95;;;1.80;99.90;;;;;;6175569;23;20026;-86
2022/02/23 06:35:07;;;;;;;17.58;6.07;;;1.80;99.90;;;;;;6092846;23;20125;-84
2022/02/23 06:37:54;;;;;;;19.33;6.78;;;1.80;99.90;;;;;;6091829;23;20034;-83
2022/02/23 06:40:51;;;;;;;30.63;8.65;;;1.70;99.90;;;;;;6091612;23;20026;-82
2022/02/23 06:43:42;;;;;;;26.27;8.15;;;1.70;99.90;;;;;;6174060;23;20080;-83
2022/02/23 06:46:32;;;;;;;29.38;7.88;;;1.70;99.90;;;;;;6091969;23;20325;-84
2022/02/23 06:49:19;;;;;;;24.77;7.97;;;1.70;99.90;;;;;;6089240;23;20026;-84
2022/02/23 06:52:09;;;;;;;35.47;8.45;;;1.80;99.90;;;;;;6090822;23;20027;-83
2022/02/23 06:55:01;;;;;;;27.35;8.23;;;1.80;99.90;;;;;;6174938;23;20023;-84
2022/02/23 06:57:48;;;;;;;24.42;8.40;;;1.90;99.90;;;;;;6173628;23;20314;-83
2022/02/23 07:00:37;;;;;;;39.65;8.55;;;2.00;99.90;;;;;;6089446;23;20134;-83
2022/02/23 07:03:24;;;;;;;33.05;9.88;;;2.10;99.90;;;;;;6090590;23;20361;-83
2022/02/23 07:06:15;;;;;;;29.00;9.05;;;2.20;99.90;;;;;;6173478;23;20022;-83
2022/02/23 07:09:04;;;;;;;23.48;9.00;;;2.40;99.90;;;;;;6088214;23;20074;-82
2022/02/23 07:11:54;;;;;;;36.40;9.90;;;2.50;99.90;;;;;;6090389;23;20027;-80
2022/02/23 07:14:43;;;;;;;37.10;10.30;;;2.70;99.90;;;;;;6088497;23;20067;-81
2022/02/23 07:17:31;;;;;;;27.75;9.23;;;2.90;99.90;;;;;;6173045;23;20528;-80
2022/02/23 07:20:18;;;;;;;29.70;9.23;;;3.10;99.90;;;;;;6088606;23;20038;-82
2022/02/23 07:23:08;;;;;;;31.83;10.15;;;3.40;99.90;;;;;;6090287;23;20368;-83
2022/02/23 07:25:55;;;;;;;23.48;9.35;;;3.70;99.90;;;;;;6089033;23;20477;-84
2022/02/23 07:28:44;;;;;;;28.92;10.68;;;4.10;99.90;;;;;;6166029;23;20030;-83
2022/02/23 07:31:35;;;;;;;20.77;9.15;;;4.50;99.90;;;;;;6086165;23;20041;-82
2022/02/23 07:34:22;;;;;;;27.77;8.93;;;5.00;99.90;;;;;;6175999;23;20086;-83
2022/02/23 07:37:09;;;;;;;16.10;6.50;;;5.60;99.90;;;;;;6091788;23;20035;-84
2022/02/23 07:40:07;;;;;;;17.73;5.32;;;5.80;99.90;;;;;;6090934;23;20026;-83
2022/02/23 07:43:17;;;;;;;19.30;5.53;;;5.50;99.90;;;;;;6160301;23;20023;-81
2022/02/23 07:46:05;;;;;;;21.65;4.78;;;5.20;99.90;;;;;;6092456;23;20034;-82
2022/02/23 07:48:58;;;;;;;17.35;5.82;;;5.00;99.90;;;;;;6176048;23;20022;-82
2022/02/23 07:51:45;;;;;;;;;;;4.80;99.90;;;;;;6090380;23;20422;-81
2022/02/23 07:54:32;;;;;;;16.33;7.05;;;4.80;99.90;;;;;;6176864;23;19961;-82
2022/02/23 07:57:19;;;;;;;13.45;5.47;;;4.80;99.90;;;;;;6091621;23;20030;-84
2022/02/23 08:00:09;;;;;;;19.52;5.97;;;4.90;99.90;;;;;;6176817;23;20046;-83
2022/02/23 08:02:57;;;;;;;21.25;9.52;;;4.90;99.90;;;;;;6175545;23;20326;-83
2022/02/23 08:05:44;;;;;;;25.83;11.60;;;5.00;99.90;;;;;;6092848;23;20037;-83
2022/02/23 08:08:31;;;;;;;16.13;7.53;;;5.00;99.90;;;;;;6090282;23;20126;-83
2022/02/23 08:11:19;;;;;;;14.50;6.43;;;5.10;99.90;;;;;;6089653;23;20022;-82
2022/02/23 08:14:09;;;;;;;12.82;6.03;;;5.20;99.90;;;;;;6089960;23;20029;-83
2022/02/23 08:20:10;;;;;;;12.20;4.28;;;6.40;99.90;;;;;;6119679;23;20054;-84
2022/02/23 08:22:59;;;;;;;17.42;4.82;;;6.70;99.90;;;;;;6091043;23;20033;-84
2022/02/23 08:25:47;;;;;;;10.98;4.53;;;7.00;99.90;;;;;;6091284;23;20064;-84
2022/02/23 08:28:38;;;;;;;11.18;4.65;;;7.10;91.10;;;;;;6092314;23;20026;-82
2022/02/23 08:31:25;;;;;;;8.48;4.22;;;7.10;64.40;;;;;;6091362;23;20026;-82
2022/02/23 08:34:12;;;;;;;8.88;4.35;;;7.30;63.40;;;;;;6198106;22;20031;-82
2022/02/23 08:37:02;;;;;;;8.05;4.32;;;7.80;41.90;;;;;;6170862;23;20030;-84
2022/02/23 08:39:52;;;;;;;8.07;2.80;;;8.90;1.00;;;;;;6091769;23;20026;-83
2022/02/23 08:42:39;;;;;;;10.32;3.60;;;9.40;99.90;;;;;;6089845;23;20041;-83
2022/02/23 08:45:28;;;;;;;5.18;2.30;;;9.70;99.90;;;;;;6091014;23;20030;-83
2022/02/23 08:48:15;;;;;;;10.15;2.80;;;10.20;99.90;;;;;;6176587;23;20069;-81
2022/02/23 08:51:25;;;;;;;10.90;3.30;;;10.60;99.90;;;;;;6089071;23;20117;-84
2022/02/23 08:54:14;;;;;;;7.72;2.88;;;10.10;1.00;;;;;;6193867;23;20023;-85
2022/02/23 08:57:05;;;;;;;8.32;2.92;;;10.10;99.90;;;;;;6091101;23;20077;-84
2022/02/23 08:59:52;;;;;;;8.18;3.67;;;10.20;99.90;;;;;;6169949;23;20050;-83
2022/02/23 09:02:39;;;;;;;11.80;3.80;;;10.20;1.00;;;;;;6174681;23;20026;-82
2022/02/23 09:05:27;;;;;;;8.48;3.67;;;10.30;1.00;;;;;;6175084;23;20030;-83
2022/02/23 09:08:15;;;;;;;10.70;3.20;;;10.70;1.00;;;;;;6176013;23;20113;-82
2022/02/23 09:11:02;;;;;;;8.02;3.15;;;10.90;65.50;;;;;;6089890;23;20022;-81
2022/02/23 09:13:49;;;;;;;10.70;3.45;;;11.20;99.90;;;;;;6091962;23;20057;-81
2022/02/23 09:16:37;;;;;;;7.35;2.60;;;11.20;1.00;;;;;;6175441;23;20027;-81
2022/02/23 09:19:26;;;;;;;6.97;1.80;;;11.80;99.90;;;;;;6090978;23;20092;-80
2022/02/23 09:22:14;;;;;;;10.95;2.20;;;12.10;20.10;;;;;;6092392;23;20038;-81
2022/02/23 09:25:01;;;;;;;8.68;2.35;;;12.90;99.90;;;;;;6091411;23;20058;-82
2022/02/23 09:27:51;;;;;;;8.15;1.95;;;13.60;99.90;;;;;;6089330;23;20102;-83
2022/02/23 09:30:41;;;;;;;;;;;14.10;99.90;;;;;;6173791;23;20335;-82
2022/02/23 09:33:30;;;;;;;12.00;1.90;;;14.10;1.00;;;;;;6088864;23;20204;-82
2022/02/23 09:36:20;;;;;;;7.03;1.83;;;13.90;1.00;;;;;;6092752;23;20026;-82
2022/02/23 09:39:08;;;;;;;9.25;1.90;;;13.80;1.00;;;;;;6090912;23;20062;-82
2022/02/23 09:41:59;;;;;;;9.50;1.45;;;13.80;1.00;;;;;;6091307;23;20030;-83
2022/02/23 09:44:46;;;;;;;5.57;1.60;;;13.70;1.00;;;;;;6090818;23;20026;-83
2022/02/23 09:47:58;;;;;;;8.50;1.40;;;14.10;1.00;;;;;;6091864;23;20464;-85
2022/02/23 09:50:48;;;;;;;5.72;1.50;;;15.50;1.00;;;;;;6181604;23;20046;-88
2022/02/23 09:53:44;;;;;;;10.02;1.52;;;16.50;1.00;;;;;;6183902;23;20046;-86
2022/02/23 09:56:34;;;;;;;7.47;1.55;;;17.70;99.90;;;;;;6092203;23;20033;-89
2022/02/23 09:59:22;;;;;;;8.77;2.03;;;17.60;99.90;;;;;;6092054;23;20023;-85
2022/02/23 10:02:15;;;;;;;5.25;1.60;;;17.10;99.90;;;;;;6172406;23;20256;-85
2022/02/23 10:05:06;;;;;;;5.97;1.35;;;17.10;99.90;;;;;;6089541;23;20027;-85
2022/02/23 10:08:09;;;;;;;5.82;1.50;;;16.70;99.90;;;;;;6174662;23;20025;-84
2022/02/23 10:11:19;;;;;;;5.57;1.63;;;16.60;99.90;;;;;;6090745;23;20031;-83
2022/02/23 10:14:08;;;;;;;6.00;1.23;;;17.20;99.90;;;;;;6091238;23;20414;-85
2022/02/23 10:16:58;;;;;;;7.90;1.38;;;18.00;99.90;;;;;;6174179;23;20030;-89
2022/02/23 10:19:50;;;;;;;5.13;1.40;;;18.70;99.90;;;;;;6174019;23;20027;-88
2022/02/23 10:22:45;;;;;;;6.68;1.55;;;19.20;99.90;;;;;;6092902;23;20418;-88
2022/02/23 10:25:42;;;;;;;4.28;1.45;;;18.80;99.90;;;;;;6091616;23;20314;-89
2022/02/23 10:28:34;;;;;;;8.30;1.20;;;16.90;99.90;;;;;;6093097;23;20096;-88
2022/02/23 10:31:26;;;;;;;7.22;1.63;;;14.90;99.90;;;;;;6176663;23;20037;-86
2022/02/23 10:34:20;;;;;;;6.10;1.40;;;14.30;99.90;;;;;;6093831;23;20437;-88
2022/02/23 10:37:08;;;;;;;6.57;1.67;;;13.70;99.90;;;;;;6178362;23;20429;-88
2022/02/23 10:40:02;;;;;;;6.05;1.50;;;14.10;99.90;;;;;;6089072;23;20094;-84
2022/02/23 10:42:50;;;;;;;6.28;1.70;;;14.20;99.90;;;;;;6091689;23;20361;-83
2022/02/23 10:45:44;;;;;;;6.18;1.58;;;15.10;99.90;;;;;;6091184;23;20049;-84
2022/02/23 10:48:37;;;;;;;6.40;1.60;;;16.30;99.90;;;;;;6176147;23;20439;-82
2022/02/23 10:51:24;;;;;;;7.07;1.25;;;16.50;99.90;;;;;;6090884;23;20104;-83
2022/02/23 10:54:13;;;;;;;6.25;1.77;;;15.70;99.90;;;;;;6091834;23;20026;-81
2022/02/23 10:57:03;;;;;;;7.60;1.70;;;16.30;99.90;;;;;;6090726;23;20030;-84
2022/02/23 10:59:52;;;;;;;5.93;1.40;;;17.50;99.90;;;;;;6089258;23;20463;-82
2022/02/23 11:02:42;;;;;;;5.97;1.55;;;19.40;1.00;;;;;;6091930;23;20030;-84
2022/02/23 11:05:31;;;;;;;7.47;1.60;;;20.30;1.00;;;;;;6197409;22;20096;-82
2022/02/23 11:08:21;;;;;;;4.45;1.33;;;21.00;99.90;;;;;;6091223;23;20026;-83
2022/02/23 11:11:11;;;;;;;7.00;1.98;;;20.40;99.90;;;;;;6092803;23;20511;-82
2022/02/23 11:13:59;;;;;;;6.05;2.15;;;21.30;99.90;;;;;;6175556;23;20022;-83
2022/02/23 11:16:50;;;;;;;7.13;1.95;;;21.10;1.00;;;;;;6091536;23;20026;-82
2022/02/23 11:19:39;;;;;;;5.65;1.60;;;20.40;1.00;;;;;;6175605;23;20312;-82
2022/02/23 11:22:29;;;;;;;5.03;1.40;;;19.20;1.00;;;;;;6192580;23;20121;-82
2022/02/23 11:25:20;;;;;;;8.07;1.70;;;19.00;1.00;;;;;;6172868;23;20449;-84
2022/02/23 11:28:16;;;;;;;4.72;1.33;;;20.60;99.90;;;;;;6091417;23;20105;-87
2022/02/23 11:31:13;;;;;;;7.50;1.50;;;20.90;1.00;;;;;;6097785;23;20260;-86
2022/02/23 11:34:05;;;;;;;7.15;1.60;;;20.00;29.30;;;;;;6099655;23;20121;-84
2022/02/23 11:36:58;;;;;;;4.88;1.40;;;19.80;93.30;;;;;;6094282;23;20434;-84
2022/02/23 11:39:51;;;;;;;10.25;2.20;;;19.50;33.90;;;;;;6171493;23;20086;-83
2022/02/23 11:42:38;;;;;;;9.02;1.77;;;19.30;1.00;;;;;;6089927;23;20037;-84
2022/02/23 11:49:11;;;;;;;7.10;1.90;;;20.70;99.90;;;;;;6090965;23;20129;-84
2022/02/23 11:52:18;;;;;;;5.53;1.63;;;20.80;1.00;;;;;;6090095;23;20026;-83
2022/02/23 11:58:55;;;;;;;7.65;1.48;;;22.20;31.20;;;;;;6090557;23;20038;-83
2022/02/23 12:01:47;;;;;;;6.43;1.60;;;20.80;99.90;;;;;;6104188;23;20034;-85
2022/02/23 12:04:49;;;;;;;4.50;1.60;;;18.30;1.00;;;;;;6091155;23;20042;-85
2022/02/23 12:07:52;;;;;;;6.30;1.40;;;16.70;99.90;;;;;;6090567;23;20045;-85
2022/02/23 12:10:39;;;;;;;6.90;1.58;;;17.20;99.90;;;;;;6091798;23;20035;-82
2022/02/23 12:13:44;;;;;;;7.10;1.88;;;18.90;1.00;;;;;;6168848;23;20134;-82
2022/02/23 12:16:41;;;;;;;7.50;2.03;;;18.90;1.00;;;;;;6090610;23;20333;-82
2022/02/23 12:19:42;;;;;;;7.10;1.60;;;20.60;99.90;;;;;;6091585;23;20109;-83
2022/02/23 12:22:31;;;;;;;7.68;2.00;;;22.00;99.90;;;;;;6090567;23;20034;-83
2022/02/23 12:25:18;;;;;;;6.43;1.52;;;21.30;60.30;;;;;;6090637;23;20027;-83
2022/02/23 12:28:05;;;;;;;4.57;1.33;;;20.80;32.60;;;;;;6092723;23;20054;-82
2022/02/23 12:31:18;;;;;;;5.63;1.30;;;19.80;6.30;;;;;;6091806;23;20026;-82
2022/02/23 12:34:10;;;;;;;6.05;1.60;;;19.00;99.90;;;;;;6092724;23;20309;-84
2022/02/23 12:37:17;;;;;;;5.63;1.80;;;17.50;99.90;;;;;;6089886;23;20030;-84
2022/02/23 12:40:08;;;;;;;6.60;1.40;;;17.60;99.90;;;;;;6090063;23;20026;-82
2022/02/23 12:43:11;;;;;;;5.15;1.38;;;18.80;1.00;;;;;;6175793;23;20026;-83
2022/02/23 12:45:59;;;;;;;6.57;1.85;;;20.10;1.00;;;;;;6171130;23;20031;-83
2022/02/23 12:48:46;;;;;;;6.03;1.55;;;20.30;49.40;;;;;;6192110;23;20030;-82
2022/02/23 12:51:36;;;;;;;4.28;1.38;;;20.70;99.90;;;;;;6091870;23;20058;-83
2022/02/23 12:54:25;;;;;;;6.55;1.40;;;21.80;99.90;;;;;;6175189;23;20460;-82
2022/02/23 12:57:17;;;;;;;4.53;1.20;;;23.00;99.90;;;;;;6093060;23;20030;-84
2022/02/23 13:00:05;;;;;;;5.22;1.20;;;23.00;1.00;;;;;;6173239;23;20045;-83
2022/02/23 13:02:54;;;;;;;3.25;1.00;;;23.60;99.90;;;;;;6089441;23;20034;-82
2022/02/23 13:05:41;;;;;;;5.30;1.27;;;23.80;99.90;;;;;;6174795;23;20323;-82
2022/02/23 13:08:28;;;;;;;5.65;1.40;;;21.40;99.90;;;;;;6091005;23;20030;-82
2022/02/23 13:11:16;;;;;;;5.65;1.45;;;19.80;99.90;;;;;;6090032;23;20031;-84
2022/02/23 13:14:07;;;;;;;5.18;1.33;;;19.40;99.90;;;;;;6090161;23;20082;-83
2022/02/23 13:16:56;;;;;;;3.63;1.15;;;20.40;67.40;;;;;;6173869;23;20033;-83
2022/02/23 13:19:44;;;;;;;4.80;1.50;;;19.70;48.10;;;;;;6090206;23;20084;-81
2022/02/23 13:22:36;;;;;;;4.30;1.40;;;19.90;99.90;;;;;;6091616;23;20030;-82
2022/02/23 13:25:23;;;;;;;6.63;1.23;;;20.70;99.90;;;;;;6091692;23;20084;-83
2022/02/23 13:28:25;;;;;;;;;;;21.60;99.90;;;;;;6091873;23;20030;-83
2022/02/23 13:31:15;;;;;;;6.35;1.48;;;22.60;1.00;;;;;;6173558;23;19918;-82
2022/02/23 13:34:21;;;;;;;3.95;1.15;;;23.10;1.00;;;;;;6090627;23;20041;-83
2022/02/23 13:37:25;;;;;;;4.13;1.10;;;22.00;1.00;;;;;;6091132;23;20394;-83
2022/02/23 13:40:22;;;;;;;4.85;1.13;;;21.60;1.00;;;;;;6091167;23;20106;-80
2022/02/23 13:43:11;;;;;;;4.70;1.10;;;21.50;1.00;;;;;;6176505;23;20030;-82
2022/02/23 13:45:59;;;;;;;4.97;1.50;;;22.60;1.00;;;;;;6089712;23;20036;-81
2022/02/23 13:49:01;;;;;;;3.05;1.20;;;23.50;99.90;;;;;;6091217;23;20119;-82
2022/02/23 13:51:49;;;;;;;2.75;0.88;;;24.30;76.40;;;;;;6090973;23;20398;-81
2022/02/23 13:54:39;;;;;;;3.35;1.10;;;24.70;99.90;;;;;;6091153;23;20026;-81
2022/02/23 13:57:27;;;;;;;5.60;1.23;;;25.10;99.90;;;;;;6091058;23;20026;-82
2022/02/23 14:00:16;;;;;;;5.25;1.30;;;25.40;99.90;;;;;;6173075;23;20030;-83
2022/02/23 14:03:13;;;;;;;5.32;1.20;;;25.10;86.70;;;;;;6092667;23;20310;-82
2022/02/23 14:06:08;;;;;;;6.43;1.20;;;26.30;99.90;;;;;;6089913;23;20026;-82
2022/02/23 14:08:58;;;;;;;2.53;0.82;;;26.50;99.90;;;;;;6090702;23;20035;-82
2022/02/23 14:11:46;;;;;;;4.97;1.05;;;25.20;99.90;;;;;;6093481;23;20576;-81
2022/02/23 14:14:38;;;;;;;2.53;1.13;;;24.40;1.00;;;;;;6091780;23;20022;-83
2022/02/23 14:17:29;;;;;;;3.20;0.90;;;24.80;99.90;;;;;;6175989;23;20026;-83
2022/02/23 14:20:18;;;;;;;2.53;1.02;;;25.40;2.30;;;;;;6091705;23;20416;-84
2022/02/23 14:23:14;;;;;;;1.38;0.85;;;25.50;99.90;;;;;;6091578;23;20057;-83
2022/02/23 14:26:05;;;;;;;4.30;0.88;;;25.40;99.90;;;;;;6088849;23;20056;-82
2022/02/23 14:28:57;;;;;;;3.07;0.90;;;24.70;99.90;;;;;;6090789;23;20035;-83
2022/02/23 14:31:45;;;;;;;4.32;1.05;;;24.40;1.00;;;;;;6089858;23;20018;-84
2022/02/23 14:34:35;;;;;;;3.30;1.35;;;24.40;1.00;;;;;;6091910;23;20301;-83
2022/02/23 14:37:28;;;;;;;4.18;1.40;;;23.60;1.00;;;;;;6088817;23;20030;-83
2022/02/23 14:40:18;;;;;;;2.85;1.08;;;23.30;1.00;;;;;;6175617;23;20422;-82
2022/02/23 14:43:09;;;;;;;2.63;1.00;;;22.70;1.00;;;;;;6090549;23;20110;-83
2022/02/23 14:45:56;;;;;;;1.67;0.73;;;21.90;1.00;;;;;;6090934;23;20305;-83
2022/02/23 14:48:46;;;;;;;5.40;1.50;;;21.40;1.00;;;;;;6090607;23;20027;-82
2022/02/23 14:51:33;;;;;;;4.05;1.00;;;22.20;1.00;;;;;;6175751;23;20034;-81
2022/02/23 14:54:20;;;;;;;3.42;0.98;;;22.20;1.00;;;;;;6193523;23;20038;-84
2022/02/23 14:57:08;;;;;;;4.97;1.42;;;22.60;1.00;;;;;;6090564;23;20077;-85
2022/02/23 14:59:57;;;;;;;2.17;0.80;;;22.40;1.00;;;;;;6176218;22;20456;-85